sensor_id;sensor_type;location;lat;lon;timestamp;pressure;altitude;pressure_sealevel;temperature;humidity
64844;BME280;51310;52.198;5.422;2024-02-23T00:01:15;98416.91;;;4.29;100.00
64844;BME280;51310;52.198;5.422;2024-02-23T00:03:41;98420.03;;;4.34;100.00
64844;BME280;51310;52.198;5.422;2024-02-23T00:06:07;98429.31;;;4.40;100.00
64844;BME280;51310;52.198;5.422;2024-02-23T00:08:34;98435.91;;;4.45;100.00
64844;BME280;51310;52.198;5.422;2024-02-23T00:11:00;98448.06;;;4.48;100.00
64844;BME280;51310;52.198;5.422;2024-02-23T00:13:26;98449.75;;;4.49;100.00
64844;BME280;51310;52.198;5.422;2024-02-23T00:15:52;98449.06;;;4.58;100.00
64844;BME280;51310;52.198;5.422;2024-02-23T00:18:17;98454.09;;;4.61;100.00
64844;BME280;51310;52.198;5.422;2024-02-23T00:20:43;98459.56;;;4.71;100.00
64844;BME280;51310;52.198;5.422;2024-02-23T00:23:09;98453.03;;;4.75;100.00
64844;BME280;51310;52.198;5.422;2024-02-23T00:25:35;98443.06;;;4.67;100.00
64844;BME280;51310;52.198;5.422;2024-02-23T00:28:01;98464.72;;;4.84;100.00
64844;BME280;51310;52.198;5.422;2024-02-23T00:30:27;98458.59;;;4.83;100.00
64844;BME280;51310;52.198;5.422;2024-02-23T00:32:53;98451.97;;;4.77;100.00
64844;BME280;51310;52.198;5.422;2024-02-23T00:35:18;98460.41;;;4.83;100.00
64844;BME280;51310;52.198;5.422;2024-02-23T00:37:44;98454.63;;;4.77;100.00
64844;BME280;51310;52.198;5.422;2024-02-23T00:40:11;98455.84;;;4.85;100.00
64844;BME280;51310;52.198;5.422;2024-02-23T00:42:37;98469.78;;;4.87;100.00
64844;BME280;51310;52.198;5.422;2024-02-23T00:45:04;98463.78;;;4.85;100.00
64844;BME280;51310;52.198;5.422;2024-02-23T00:47:30;98463.75;;;4.73;100.00
64844;BME280;51310;52.198;5.422;2024-02-23T00:49:56;98485.88;;;4.84;100.00
64844;BME280;51310;52.198;5.422;2024-02-23T00:52:22;98487.81;;;4.82;100.00
64844;BME280;51310;52.198;5.422;2024-02-23T00:54:48;98496.97;;;4.89;100.00
64844;BME280;51310;52.198;5.422;2024-02-23T00:57:13;98496.28;;;4.98;100.00
64844;BME280;51310;52.198;5.422;2024-02-23T00:59:39;98501.06;;;5.04;100.00
64844;BME280;51310;52.198;5.422;2024-02-23T01:02:05;98505.63;;;5.13;100.00
64844;BME280;51310;52.198;5.422;2024-02-23T01:04:31;98504.09;;;5.22;100.00
64844;BME280;51310;52.198;5.422;2024-02-23T01:06:58;98510.47;;;5.19;100.00
64844;BME280;51310;52.198;5.422;2024-02-23T01:09:25;98523.50;;;5.22;100.00
64844;BME280;51310;52.198;5.422;2024-02-23T01:11:51;98515.75;;;5.19;100.00
64844;BME280;51310;52.198;5.422;2024-02-23T01:14:17;98509.63;;;5.08;100.00
64844;BME280;51310;52.198;5.422;2024-02-23T01:16:42;98512.38;;;4.95;100.00
64844;BME280;51310;52.198;5.422;2024-02-23T01:19:08;98530.06;;;4.94;100.00
64844;BME280;51310;52.198;5.422;2024-02-23T01:21:34;98517.88;;;4.80;100.00
64844;BME280;51310;52.198;5.422;2024-02-23T01:24:00;98519.56;;;4.82;100.00
64844;BME280;51310;52.198;5.422;2024-02-23T01:26:26;98536.06;;;4.85;100.00
64844;BME280;51310;52.198;5.422;2024-02-23T01:28:53;98531.84;;;4.83;100.00
64844;BME280;51310;52.198;5.422;2024-02-23T01:31:19;98552.19;;;4.82;100.00
64844;BME280;51310;52.198;5.422;2024-02-23T01:33:45;98560.22;;;4.80;100.00
64844;BME280;51310;52.198;5.422;2024-02-23T01:36:11;98563.53;;;4.60;100.00
64844;BME280;51310;52.198;5.422;2024-02-23T01:38:37;98569.84;;;4.46;100.00
64844;BME280;51310;52.198;5.422;2024-02-23T01:41:04;98573.50;;;4.32;100.00
64844;BME280;51310;52.198;5.422;2024-02-23T01:43:30;98550.84;;;4.17;100.00
64844;BME280;51310;52.198;5.422;2024-02-23T01:45:56;98539.88;;;4.10;100.00
64844;BME280;51310;52.198;5.422;2024-02-23T01:48:22;98546.22;;;4.08;100.00
64844;BME280;51310;52.198;5.422;2024-02-23T01:50:48;98560.00;;;4.24;100.00
64844;BME280;51310;52.198;5.422;2024-02-23T01:53:15;98576.66;;;4.37;100.00
64844;BME280;51310;52.198;5.422;2024-02-23T01:55:45;98571.56;;;4.34;100.00
64844;BME280;51310;52.198;5.422;2024-02-23T01:58:12;98584.75;;;4.47;100.00
64844;BME280;51310;52.198;5.422;2024-02-23T02:00:38;98594.16;;;4.51;100.00
64844;BME280;51310;52.198;5.422;2024-02-23T02:03:05;98589.59;;;4.53;100.00
64844;BME280;51310;52.198;5.422;2024-02-23T02:05:31;98590.47;;;4.41;100.00
64844;BME280;51310;52.198;5.422;2024-02-23T02:07:57;98596.16;;;4.48;100.00
64844;BME280;51310;52.198;5.422;2024-02-23T02:10:26;98609.91;;;4.53;100.00
64844;BME280;51310;52.198;5.422;2024-02-23T02:12:52;98622.16;;;4.54;100.00
64844;BME280;51310;52.198;5.422;2024-02-23T02:15:18;98614.13;;;4.55;100.00
64844;BME280;51310;52.198;5.422;2024-02-23T02:17:47;98615.59;;;4.59;100.00
64844;BME280;51310;52.198;5.422;2024-02-23T02:20:13;98608.38;;;4.62;100.00
64844;BME280;51310;52.198;5.422;2024-02-23T02:22:39;98580.69;;;4.54;100.00
64844;BME280;51310;52.198;5.422;2024-02-23T02:25:06;98598.41;;;4.65;100.00
64844;BME280;51310;52.198;5.422;2024-02-23T02:27:33;98581.81;;;4.63;100.00
64844;BME280;51310;52.198;5.422;2024-02-23T02:29:58;98572.78;;;4.66;100.00
64844;BME280;51310;52.198;5.422;2024-02-23T02:32:24;98593.00;;;4.67;100.00
64844;BME280;51310;52.198;5.422;2024-02-23T02:34:50;98606.25;;;4.67;100.00
64844;BME280;51310;52.198;5.422;2024-02-23T02:37:16;98602.97;;;4.63;100.00
64844;BME280;51310;52.198;5.422;2024-02-23T02:39:42;98599.81;;;4.58;100.00
64844;BME280;51310;52.198;5.422;2024-02-23T02:42:08;98607.88;;;4.56;100.00
64844;BME280;51310;52.198;5.422;2024-02-23T02:44:34;98604.63;;;4.53;100.00
64844;BME280;51310;52.198;5.422;2024-02-23T02:47:00;98605.69;;;4.50;100.00
64844;BME280;51310;52.198;5.422;2024-02-23T02:49:26;98608.44;;;4.49;100.00
64844;BME280;51310;52.198;5.422;2024-02-23T02:51:52;98608.66;;;4.46;100.00
64844;BME280;51310;52.198;5.422;2024-02-23T02:54:18;98614.81;;;4.46;100.00
64844;BME280;51310;52.198;5.422;2024-02-23T02:56:44;98625.97;;;4.50;100.00
64844;BME280;51310;52.198;5.422;2024-02-23T02:59:12;98606.06;;;4.33;100.00
64844;BME280;51310;52.198;5.422;2024-02-23T03:01:39;98613.44;;;4.41;100.00
64844;BME280;51310;52.198;5.422;2024-02-23T03:04:05;98611.47;;;4.31;100.00
64844;BME280;51310;52.198;5.422;2024-02-23T03:06:31;98606.63;;;4.25;100.00
64844;BME280;51310;52.198;5.422;2024-02-23T03:08:57;98633.47;;;4.32;100.00
64844;BME280;51310;52.198;5.422;2024-02-23T03:11:23;98627.34;;;4.31;100.00
64844;BME280;51310;52.198;5.422;2024-02-23T03:13:48;98630.94;;;4.30;100.00
64844;BME280;51310;52.198;5.422;2024-02-23T03:16:16;98635.59;;;4.27;100.00
64844;BME280;51310;52.198;5.422;2024-02-23T03:18:43;98619.56;;;4.17;100.00
64844;BME280;51310;52.198;5.422;2024-02-23T03:21:10;98648.91;;;4.25;100.00
64844;BME280;51310;52.198;5.422;2024-02-23T03:23:36;98645.19;;;4.28;100.00
64844;BME280;51310;52.198;5.422;2024-02-23T03:26:02;98644.28;;;4.16;100.00
64844;BME280;51310;52.198;5.422;2024-02-23T03:28:29;98642.31;;;4.07;100.00
64844;BME280;51310;52.198;5.422;2024-02-23T03:30:54;98635.03;;;3.97;100.00
64844;BME280;51310;52.198;5.422;2024-02-23T03:33:20;98635.69;;;3.88;100.00
64844;BME280;51310;52.198;5.422;2024-02-23T03:35:46;98635.47;;;3.91;100.00
64844;BME280;51310;52.198;5.422;2024-02-23T03:38:12;98650.78;;;3.99;100.00
64844;BME280;51310;52.198;5.422;2024-02-23T03:40:38;98665.25;;;4.06;100.00
64844;BME280;51310;52.198;5.422;2024-02-23T03:43:04;98670.84;;;4.14;100.00
64844;BME280;51310;52.198;5.422;2024-02-23T03:45:31;98642.41;;;4.05;100.00
64844;BME280;51310;52.198;5.422;2024-02-23T03:47:57;98650.25;;;4.07;100.00
64844;BME280;51310;52.198;5.422;2024-02-23T03:50:23;98671.06;;;4.11;100.00
64844;BME280;51310;52.198;5.422;2024-02-23T03:52:49;98669.06;;;4.02;100.00
64844;BME280;51310;52.198;5.422;2024-02-23T03:55:15;98654.94;;;3.90;100.00
64844;BME280;51310;52.198;5.422;2024-02-23T03:57:41;98669.63;;;3.94;100.00
64844;BME280;51310;52.198;5.422;2024-02-23T04:00:08;98655.56;;;3.81;100.00
64844;BME280;51310;52.198;5.422;2024-02-23T04:02:34;98650.72;;;3.75;100.00
64844;BME280;51310;52.198;5.422;2024-02-23T04:05:00;98652.63;;;3.73;100.00
64844;BME280;51310;52.198;5.422;2024-02-23T04:07:26;98671.09;;;3.86;100.00
64844;BME280;51310;52.198;5.422;2024-02-23T04:09:52;98675.22;;;3.77;100.00
64844;BME280;51310;52.198;5.422;2024-02-23T04:12:21;98675.47;;;3.74;100.00
64844;BME280;51310;52.198;5.422;2024-02-23T04:14:47;98670.69;;;3.79;100.00
64844;BME280;51310;52.198;5.422;2024-02-23T04:17:13;98672.91;;;3.72;100.00
64844;BME280;51310;52.198;5.422;2024-02-23T04:19:41;98681.47;;;3.63;100.00
64844;BME280;51310;52.198;5.422;2024-02-23T04:22:08;98675.13;;;3.66;100.00
64844;BME280;51310;52.198;5.422;2024-02-23T04:24:41;98688.56;;;3.63;100.00
64844;BME280;51310;52.198;5.422;2024-02-23T04:27:07;98694.47;;;3.66;100.00
64844;BME280;51310;52.198;5.422;2024-02-23T04:29:34;98697.00;;;3.68;100.00
64844;BME280;51310;52.198;5.422;2024-02-23T04:32:01;98682.84;;;3.56;100.00
64844;BME280;51310;52.198;5.422;2024-02-23T04:34:28;98675.75;;;3.57;100.00
64844;BME280;51310;52.198;5.422;2024-02-23T04:36:55;98700.91;;;3.62;100.00
64844;BME280;51310;52.198;5.422;2024-02-23T04:39:22;98703.41;;;3.51;100.00
64844;BME280;51310;52.198;5.422;2024-02-23T04:41:48;98693.59;;;3.53;100.00
64844;BME280;51310;52.198;5.422;2024-02-23T04:44:14;98710.94;;;3.57;100.00
64844;BME280;51310;52.198;5.422;2024-02-23T04:46:39;98703.56;;;3.49;100.00
64844;BME280;51310;52.198;5.422;2024-02-23T04:49:05;98725.28;;;3.53;100.00
64844;BME280;51310;52.198;5.422;2024-02-23T04:51:31;98700.78;;;3.38;100.00
64844;BME280;51310;52.198;5.422;2024-02-23T04:53:57;98720.94;;;3.39;100.00
64844;BME280;51310;52.198;5.422;2024-02-23T04:56:23;98725.72;;;3.47;100.00
64844;BME280;51310;52.198;5.422;2024-02-23T04:58:49;98723.72;;;3.50;100.00
64844;BME280;51310;52.198;5.422;2024-02-23T05:01:15;98711.53;;;3.35;100.00
64844;BME280;51310;52.198;5.422;2024-02-23T05:03:41;98720.13;;;3.51;100.00
64844;BME280;51310;52.198;5.422;2024-02-23T05:06:06;98708.81;;;3.49;100.00
64844;BME280;51310;52.198;5.422;2024-02-23T05:08:32;98725.84;;;3.71;100.00
64844;BME280;51310;52.198;5.422;2024-02-23T05:10:58;98730.59;;;3.79;100.00
64844;BME280;51310;52.198;5.422;2024-02-23T05:13:24;98729.84;;;3.89;100.00
64844;BME280;51310;52.198;5.422;2024-02-23T05:15:50;98736.63;;;3.93;100.00
64844;BME280;51310;52.198;5.422;2024-02-23T05:18:16;98716.84;;;3.86;100.00
64844;BME280;51310;52.198;5.422;2024-02-23T05:20:42;98723.94;;;3.99;100.00
64844;BME280;51310;52.198;5.422;2024-02-23T05:23:08;98734.63;;;3.97;100.00
64844;BME280;51310;52.198;5.422;2024-02-23T05:25:34;98727.63;;;3.96;100.00
64844;BME280;51310;52.198;5.422;2024-02-23T05:28:00;98727.63;;;3.96;100.00
64844;BME280;51310;52.198;5.422;2024-02-23T05:30:26;98736.84;;;4.03;100.00
64844;BME280;51310;52.198;5.422;2024-02-23T05:32:53;98727.22;;;4.02;100.00
64844;BME280;51310;52.198;5.422;2024-02-23T05:35:18;98731.75;;;4.13;100.00
64844;BME280;51310;52.198;5.422;2024-02-23T05:37:44;98732.50;;;4.15;100.00
64844;BME280;51310;52.198;5.422;2024-02-23T05:40:10;98733.97;;;4.19;100.00
64844;BME280;51310;52.198;5.422;2024-02-23T05:42:37;98732.06;;;4.21;100.00
64844;BME280;51310;52.198;5.422;2024-02-23T05:45:04;98712.19;;;4.15;100.00
64844;BME280;51310;52.198;5.422;2024-02-23T05:47:30;98724.00;;;4.23;100.00
64844;BME280;51310;52.198;5.422;2024-02-23T05:49:56;98745.78;;;4.26;100.00
64844;BME280;51310;52.198;5.422;2024-02-23T05:52:22;98743.03;;;4.28;100.00
64844;BME280;51310;52.198;5.422;2024-02-23T05:54:48;98735.09;;;4.28;100.00
64844;BME280;51310;52.198;5.422;2024-02-23T05:57:14;98725.59;;;4.25;100.00
64844;BME280;51310;52.198;5.422;2024-02-23T05:59:40;98732.69;;;4.12;100.00
64844;BME280;51310;52.198;5.422;2024-02-23T06:02:06;98733.75;;;4.09;100.00
64844;BME280;51310;52.198;5.422;2024-02-23T06:04:32;98726.78;;;4.08;100.00
64844;BME280;51310;52.198;5.422;2024-02-23T06:06:58;98727.94;;;4.17;100.00
64844;BME280;51310;52.198;5.422;2024-02-23T06:09:23;98736.72;;;4.17;100.00
64844;BME280;51310;52.198;5.422;2024-02-23T06:11:49;98733.00;;;4.20;100.00
64844;BME280;51310;52.198;5.422;2024-02-23T06:14:15;98731.84;;;4.24;100.00
64844;BME280;51310;52.198;5.422;2024-02-23T06:16:41;98732.56;;;4.26;100.00
64844;BME280;51310;52.198;5.422;2024-02-23T06:19:07;98720.84;;;4.17;100.00
64844;BME280;51310;52.198;5.422;2024-02-23T06:21:33;98733.94;;;4.32;100.00
64844;BME280;51310;52.198;5.422;2024-02-23T06:23:59;98737.94;;;4.37;100.00
64844;BME280;51310;52.198;5.422;2024-02-23T06:26:25;98733.31;;;4.28;100.00
64844;BME280;51310;52.198;5.422;2024-02-23T06:28:51;98734.97;;;4.42;100.00
64844;BME280;51310;52.198;5.422;2024-02-23T06:31:17;98747.47;;;4.40;100.00
64844;BME280;51310;52.198;5.422;2024-02-23T06:33:43;98747.03;;;4.46;100.00
64844;BME280;51310;52.198;5.422;2024-02-23T06:36:09;98748.81;;;4.46;100.00
64844;BME280;51310;52.198;5.422;2024-02-23T06:38:35;98731.69;;;4.38;100.00
64844;BME280;51310;52.198;5.422;2024-02-23T06:41:01;98752.72;;;4.53;100.00
64844;BME280;51310;52.198;5.422;2024-02-23T06:43:27;98734.41;;;4.50;100.00
64844;BME280;51310;52.198;5.422;2024-02-23T06:45:53;98748.88;;;4.57;100.00
64844;BME280;51310;52.198;5.422;2024-02-23T06:48:19;98742.56;;;4.59;100.00
64844;BME280;51310;52.198;5.422;2024-02-23T06:50:45;98732.31;;;4.55;100.00
64844;BME280;51310;52.198;5.422;2024-02-23T06:53:11;98747.06;;;4.70;100.00
64844;BME280;51310;52.198;5.422;2024-02-23T06:55:37;98746.44;;;4.67;100.00
64844;BME280;51310;52.198;5.422;2024-02-23T06:58:03;98743.38;;;4.73;100.00
64844;BME280;51310;52.198;5.422;2024-02-23T07:00:30;98732.38;;;4.66;100.00
64844;BME280;51310;52.198;5.422;2024-02-23T07:02:56;98740.38;;;4.77;100.00
64844;BME280;51310;52.198;5.422;2024-02-23T07:05:24;98735.81;;;4.79;100.00
64844;BME280;51310;52.198;5.422;2024-02-23T07:07:51;98745.44;;;4.80;100.00
64844;BME280;51310;52.198;5.422;2024-02-23T07:10:17;98751.56;;;4.81;100.00
64844;BME280;51310;52.198;5.422;2024-02-23T07:12:43;98744.59;;;4.80;100.00
64844;BME280;51310;52.198;5.422;2024-02-23T07:15:10;98746.91;;;4.85;100.00
64844;BME280;51310;52.198;5.422;2024-02-23T07:17:36;98745.09;;;4.85;100.00
64844;BME280;51310;52.198;5.422;2024-02-23T07:20:02;98739.09;;;4.83;100.00
64844;BME280;51310;52.198;5.422;2024-02-23T07:22:33;98751.75;;;4.91;100.00
64844;BME280;51310;52.198;5.422;2024-02-23T07:24:59;98755.25;;;4.91;100.00
64844;BME280;51310;52.198;5.422;2024-02-23T07:27:29;98733.56;;;4.86;100.00
64844;BME280;51310;52.198;5.422;2024-02-23T07:29:56;98745.81;;;5.00;100.00
64844;BME280;51310;52.198;5.422;2024-02-23T07:32:23;98730.13;;;4.97;100.00
64844;BME280;51310;52.198;5.422;2024-02-23T07:34:49;98736.88;;;5.01;100.00
64844;BME280;51310;52.198;5.422;2024-02-23T07:37:15;98723.94;;;5.09;100.00
64844;BME280;51310;52.198;5.422;2024-02-23T07:39:41;98728.03;;;5.13;100.00
64844;BME280;51310;52.198;5.422;2024-02-23T07:42:07;98737.72;;;5.26;100.00
64844;BME280;51310;52.198;5.422;2024-02-23T07:44:35;98736.53;;;5.30;100.00
64844;BME280;51310;52.198;5.422;2024-02-23T07:47:03;98721.84;;;5.26;100.00
64844;BME280;51310;52.198;5.422;2024-02-23T07:49:29;98728.97;;;5.36;100.00
64844;BME280;51310;52.198;5.422;2024-02-23T07:51:55;98724.53;;;5.37;100.00
64844;BME280;51310;52.198;5.422;2024-02-23T07:54:20;98702.59;;;5.35;100.00
64844;BME280;51310;52.198;5.422;2024-02-23T07:56:46;98704.66;;;5.42;100.00
64844;BME280;51310;52.198;5.422;2024-02-23T07:59:12;98716.59;;;5.48;100.00
64844;BME280;51310;52.198;5.422;2024-02-23T08:01:38;98709.97;;;5.54;100.00
64844;BME280;51310;52.198;5.422;2024-02-23T08:04:05;98707.34;;;5.54;100.00
64844;BME280;51310;52.198;5.422;2024-02-23T08:06:31;98708.41;;;5.51;100.00
64844;BME280;51310;52.198;5.422;2024-02-23T08:08:58;98707.00;;;5.47;100.00
64844;BME280;51310;52.198;5.422;2024-02-23T08:11:24;98697.34;;;5.46;100.00
64844;BME280;51310;52.198;5.422;2024-02-23T08:13:49;98703.38;;;5.48;100.00
64844;BME280;51310;52.198;5.422;2024-02-23T08:16:18;98712.16;;;5.49;100.00
64844;BME280;51310;52.198;5.422;2024-02-23T08:18:44;98685.28;;;5.42;100.00
64844;BME280;51310;52.198;5.422;2024-02-23T08:21:10;98700.97;;;5.56;100.00
64844;BME280;51310;52.198;5.422;2024-02-23T08:23:37;98679.41;;;5.50;100.00
64844;BME280;51310;52.198;5.422;2024-02-23T08:26:03;98702.31;;;5.62;100.00
64844;BME280;51310;52.198;5.422;2024-02-23T08:28:29;98704.97;;;5.73;100.00
64844;BME280;51310;52.198;5.422;2024-02-23T08:30:55;98689.19;;;5.72;100.00
64844;BME280;51310;52.198;5.422;2024-02-23T08:33:21;98682.44;;;5.68;100.00
64844;BME280;51310;52.198;5.422;2024-02-23T08:35:46;98703.16;;;5.74;100.00
64844;BME280;51310;52.198;5.422;2024-02-23T08:38:14;98698.38;;;5.79;100.00
64844;BME280;51310;52.198;5.422;2024-02-23T08:40:40;98689.78;;;5.64;100.00
64844;BME280;51310;52.198;5.422;2024-02-23T08:43:07;98680.03;;;5.64;100.00
64844;BME280;51310;52.198;5.422;2024-02-23T08:45:33;98689.44;;;5.69;100.00
64844;BME280;51310;52.198;5.422;2024-02-23T08:47:59;98689.69;;;5.66;100.00
64844;BME280;51310;52.198;5.422;2024-02-23T08:50:25;98685.22;;;5.66;100.00
64844;BME280;51310;52.198;5.422;2024-02-23T08:52:50;98685.59;;;5.73;100.00
64844;BME280;51310;52.198;5.422;2024-02-23T08:55:16;98693.06;;;5.68;100.00
64844;BME280;51310;52.198;5.422;2024-02-23T08:57:43;98687.97;;;5.64;100.00
64844;BME280;51310;52.198;5.422;2024-02-23T09:00:10;98683.38;;;5.55;100.00
64844;BME280;51310;52.198;5.422;2024-02-23T09:02:36;98694.34;;;5.51;100.00
64844;BME280;51310;52.198;5.422;2024-02-23T09:05:04;98684.09;;;5.46;100.00
64844;BME280;51310;52.198;5.422;2024-02-23T09:07:30;98686.00;;;5.44;100.00
64844;BME280;51310;52.198;5.422;2024-02-23T09:09:56;98690.94;;;5.49;100.00
64844;BME280;51310;52.198;5.422;2024-02-23T09:12:22;98699.03;;;5.47;100.00
64844;BME280;51310;52.198;5.422;2024-02-23T09:14:48;98672.88;;;5.42;100.00
64844;BME280;51310;52.198;5.422;2024-02-23T09:17:14;98702.53;;;5.48;100.00
64844;BME280;51310;52.198;5.422;2024-02-23T09:19:40;98709.03;;;5.55;100.00
64844;BME280;51310;52.198;5.422;2024-02-23T09:22:06;98697.81;;;5.51;100.00
64844;BME280;51310;52.198;5.422;2024-02-23T09:24:32;98693.97;;;5.55;100.00
64844;BME280;51310;52.198;5.422;2024-02-23T09:26:58;98699.66;;;5.62;100.00
64844;BME280;51310;52.198;5.422;2024-02-23T09:29:25;98695.81;;;5.66;100.00
64844;BME280;51310;52.198;5.422;2024-02-23T09:31:51;98707.03;;;5.70;100.00
64844;BME280;51310;52.198;5.422;2024-02-23T09:34:18;98704.97;;;5.73;100.00
64844;BME280;51310;52.198;5.422;2024-02-23T09:36:44;98706.31;;;5.79;100.00
64844;BME280;51310;52.198;5.422;2024-02-23T09:39:09;98687.75;;;5.68;100.00
64844;BME280;51310;52.198;5.422;2024-02-23T09:41:37;98700.88;;;5.69;100.00
64844;BME280;51310;52.198;5.422;2024-02-23T09:44:04;98715.09;;;5.79;100.00
64844;BME280;51310;52.198;5.422;2024-02-23T09:46:33;98711.09;;;5.74;100.00
64844;BME280;51310;52.198;5.422;2024-02-23T09:49:01;98709.16;;;5.64;100.00
64844;BME280;51310;52.198;5.422;2024-02-23T09:51:29;98728.00;;;5.73;100.00
64844;BME280;51310;52.198;5.422;2024-02-23T09:53:57;98725.94;;;5.76;100.00
64844;BME280;51310;52.198;5.422;2024-02-23T09:56:27;98720.03;;;5.73;100.00
64844;BME280;51310;52.198;5.422;2024-02-23T09:58:58;98733.03;;;5.76;100.00
64844;BME280;51310;52.198;5.422;2024-02-23T10:01:32;98728.00;;;5.73;100.00
64844;BME280;51310;52.198;5.422;2024-02-23T10:04:02;98730.06;;;5.92;100.00
64844;BME280;51310;52.198;5.422;2024-02-23T10:06:32;98723.69;;;6.05;100.00
64844;BME280;51310;52.198;5.422;2024-02-23T10:08:58;98733.97;;;6.21;100.00
64844;BME280;51310;52.198;5.422;2024-02-23T10:11:24;98722.75;;;6.29;100.00
64844;BME280;51310;52.198;5.422;2024-02-23T10:13:54;98721.28;;;6.36;100.00
64844;BME280;51310;52.198;5.422;2024-02-23T10:16:21;98730.69;;;6.52;100.00
64844;BME280;51310;52.198;5.422;2024-02-23T10:18:48;98739.25;;;6.55;100.00
64844;BME280;51310;52.198;5.422;2024-02-23T10:21:18;98738.75;;;6.61;100.00
64844;BME280;51310;52.198;5.422;2024-02-23T10:23:47;98729.13;;;6.60;100.00
64844;BME280;51310;52.198;5.422;2024-02-23T10:26:15;98732.16;;;6.56;100.00
64844;BME280;51310;52.198;5.422;2024-02-23T10:28:47;98747.22;;;6.55;100.00
64844;BME280;51310;52.198;5.422;2024-02-23T10:31:13;98731.06;;;6.58;100.00
64844;BME280;51310;52.198;5.422;2024-02-23T10:33:40;98754.56;;;6.52;100.00
64844;BME280;51310;52.198;5.422;2024-02-23T10:36:07;98749.50;;;6.60;100.00
64844;BME280;51310;52.198;5.422;2024-02-23T10:38:38;98758.28;;;6.72;100.00
64844;BME280;51310;52.198;5.422;2024-02-23T10:41:06;98750.72;;;6.56;100.00
64844;BME280;51310;52.198;5.422;2024-02-23T10:43:47;98764.22;;;6.53;100.00
64844;BME280;51310;52.198;5.422;2024-02-23T10:46:15;98769.16;;;6.57;100.00
64844;BME280;51310;52.198;5.422;2024-02-23T10:48:42;98760.34;;;6.68;100.00
64844;BME280;51310;52.198;5.422;2024-02-23T10:51:13;98764.69;;;6.69;100.00
64844;BME280;51310;52.198;5.422;2024-02-23T10:53:40;98776.41;;;6.66;100.00
64844;BME280;51310;52.198;5.422;2024-02-23T10:56:07;98774.56;;;6.78;100.00
64844;BME280;51310;52.198;5.422;2024-02-23T10:58:33;98771.19;;;6.76;100.00
64844;BME280;51310;52.198;5.422;2024-02-23T11:01:02;98759.59;;;6.77;100.00
64844;BME280;51310;52.198;5.422;2024-02-23T11:03:30;98776.59;;;6.86;100.00
64844;BME280;51310;52.198;5.422;2024-02-23T11:05:59;98772.72;;;6.90;100.00
64844;BME280;51310;52.198;5.422;2024-02-23T11:08:29;98778.28;;;6.98;100.00
64844;BME280;51310;52.198;5.422;2024-02-23T11:10:55;98773.81;;;6.99;100.00
64844;BME280;51310;52.198;5.422;2024-02-23T11:13:34;98785.13;;;7.12;100.00
64844;BME280;51310;52.198;5.422;2024-02-23T11:16:07;98784.41;;;7.10;100.00
64844;BME280;51310;52.198;5.422;2024-02-23T11:18:39;98784.41;;;7.10;100.00
64844;BME280;51310;52.198;5.422;2024-02-23T11:21:09;98781.84;;;7.08;100.00
64844;BME280;51310;52.198;5.422;2024-02-23T11:23:48;98780.03;;;7.09;100.00
64844;BME280;51310;52.198;5.422;2024-02-23T11:26:17;98776.06;;;7.15;100.00
64844;BME280;51310;52.198;5.422;2024-02-23T11:28:52;98793.91;;;7.24;100.00
64844;BME280;51310;52.198;5.422;2024-02-23T11:31:22;98779.28;;;7.29;100.00
64844;BME280;51310;52.198;5.422;2024-02-23T11:33:56;98776.84;;;7.26;100.00
64844;BME280;51310;52.198;5.422;2024-02-23T11:36:24;98765.44;;;7.15;100.00
64844;BME280;51310;52.198;5.422;2024-02-23T11:38:54;98777.16;;;7.12;100.00
64844;BME280;51310;52.198;5.422;2024-02-23T11:41:22;98774.97;;;7.17;100.00
64844;BME280;51310;52.198;5.422;2024-02-23T11:43:50;98766.72;;;7.20;100.00
64844;BME280;51310;52.198;5.422;2024-02-23T11:46:18;98778.63;;;7.37;100.00
64844;BME280;51310;52.198;5.422;2024-02-23T11:48:45;98774.59;;;7.43;100.00
64844;BME280;51310;52.198;5.422;2024-02-23T11:51:15;98787.72;;;7.56;100.00
64844;BME280;51310;52.198;5.422;2024-02-23T11:53:42;98766.03;;;7.50;100.00
64844;BME280;51310;52.198;5.422;2024-02-23T11:56:09;98784.19;;;7.66;100.00
64844;BME280;51310;52.198;5.422;2024-02-23T11:58:35;98769.63;;;7.49;100.00
64844;BME280;51310;52.198;5.422;2024-02-23T12:01:02;98782.88;;;7.61;100.00
64844;BME280;51310;52.198;5.422;2024-02-23T12:03:29;98785.66;;;7.59;100.00
64844;BME280;51310;52.198;5.422;2024-02-23T12:06:00;98788.38;;;7.48;100.00
64844;BME280;51310;52.198;5.422;2024-02-23T12:08:27;98805.72;;;7.63;100.00
64844;BME280;51310;52.198;5.422;2024-02-23T12:10:55;98804.47;;;7.67;100.00
64844;BME280;51310;52.198;5.422;2024-02-23T12:13:22;98796.63;;;7.66;100.00
64844;BME280;51310;52.198;5.422;2024-02-23T12:15:52;98813.38;;;7.78;100.00
64844;BME280;51310;52.198;5.422;2024-02-23T12:18:22;98776.88;;;7.47;100.00
64844;BME280;51310;52.198;5.422;2024-02-23T12:21:00;98791.53;;;7.42;100.00
64844;BME280;51310;52.198;5.422;2024-02-23T12:23:37;98807.88;;;7.58;100.00
64844;BME280;51310;52.198;5.422;2024-02-23T12:26:08;98813.09;;;7.60;100.00
64844;BME280;51310;52.198;5.422;2024-02-23T12:28:34;98806.16;;;7.68;100.00
64844;BME280;51310;52.198;5.422;2024-02-23T12:31:04;98814.66;;;7.83;100.00
64844;BME280;51310;52.198;5.422;2024-02-23T12:33:33;98813.44;;;7.87;100.00
64844;BME280;51310;52.198;5.422;2024-02-23T12:36:01;98821.75;;;7.94;100.00
64844;BME280;51310;52.198;5.422;2024-02-23T12:38:28;98807.41;;;7.85;100.00
64844;BME280;51310;52.198;5.422;2024-02-23T12:40:55;98801.06;;;7.98;100.00
64844;BME280;51310;52.198;5.422;2024-02-23T12:43:21;98837.84;;;8.13;100.00
64844;BME280;51310;52.198;5.422;2024-02-23T12:45:53;98839.06;;;8.09;100.00
64844;BME280;51310;52.198;5.422;2024-02-23T12:48:20;98820.19;;;8.12;100.00
64844;BME280;51310;52.198;5.422;2024-02-23T12:50:47;98826.03;;;8.06;100.00
64844;BME280;51310;52.198;5.422;2024-02-23T12:53:41;98813.69;;;8.05;100.00
64844;BME280;51310;52.198;5.422;2024-02-23T12:56:16;98830.09;;;8.10;100.00
64844;BME280;51310;52.198;5.422;2024-02-23T12:58:44;98824.84;;;7.99;100.00